sensor_id;sensor_type;location;lat;lon;timestamp;P1;durP1;ratioP1;P2;durP2;ratioP2
20637;SDS011;10478;49.004;8.470;2023-05-02T00:01:13;7.78;;;4.85;;
20637;SDS011;10478;49.004;8.470;2023-05-02T00:03:39;6.40;;;3.78;;
20637;SDS011;10478;49.004;8.470;2023-05-02T00:06:05;9.82;;;4.47;;
20637;SDS011;10478;49.004;8.470;2023-05-02T00:08:31;8.43;;;4.55;;
20637;SDS011;10478;49.004;8.470;2023-05-02T00:10:56;5.78;;;4.60;;
20637;SDS011;10478;49.004;8.470;2023-05-02T00:13:21;5.82;;;3.80;;
20637;SDS011;10478;49.004;8.470;2023-05-02T00:15:47;7.72;;;4.53;;
20637;SDS011;10478;49.004;8.470;2023-05-02T00:18:12;6.60;;;4.72;;
20637;SDS011;10478;49.004;8.470;2023-05-02T00:20:38;6.18;;;4.95;;
20637;SDS011;10478;49.004;8.470;2023-05-02T00:23:05;7.97;;;5.13;;
20637;SDS011;10478;49.004;8.470;2023-05-02T00:25:30;7.82;;;4.65;;
20637;SDS011;10478;49.004;8.470;2023-05-02T00:27:55;6.07;;;4.40;;
20637;SDS011;10478;49.004;8.470;2023-05-02T00:30:21;6.78;;;4.75;;
20637;SDS011;10478;49.004;8.470;2023-05-02T00:32:46;8.23;;;5.38;;
20637;SDS011;10478;49.004;8.470;2023-05-02T00:35:12;6.72;;;4.35;;
20637;SDS011;10478;49.004;8.470;2023-05-02T00:37:37;7.72;;;4.50;;
20637;SDS011;10478;49.004;8.470;2023-05-02T00:40:03;7.88;;;4.82;;
20637;SDS011;10478;49.004;8.470;2023-05-02T00:42:29;6.00;;;4.47;;
20637;SDS011;10478;49.004;8.470;2023-05-02T00:44:55;6.90;;;4.53;;
20637;SDS011;10478;49.004;8.470;2023-05-02T00:47:20;8.93;;;4.65;;
20637;SDS011;10478;49.004;8.470;2023-05-02T00:49:46;6.60;;;4.20;;
20637;SDS011;10478;49.004;8.470;2023-05-02T00:52:12;8.02;;;4.78;;
20637;SDS011;10478;49.004;8.470;2023-05-02T00:54:37;7.07;;;4.90;;
20637;SDS011;10478;49.004;8.470;2023-05-02T00:57:03;5.90;;;5.05;;
20637;SDS011;10478;49.004;8.470;2023-05-02T00:59:29;7.85;;;4.95;;
20637;SDS011;10478;49.004;8.470;2023-05-02T01:01:59;7.80;;;4.82;;
20637;SDS011;10478;49.004;8.470;2023-05-02T01:07:18;5.95;;;4.13;;
20637;SDS011;10478;49.004;8.470;2023-05-02T01:10:13;7.60;;;4.93;;
20637;SDS011;10478;49.004;8.470;2023-05-02T01:15:10;7.47;;;4.72;;
20637;SDS011;10478;49.004;8.470;2023-05-02T01:17:38;6.13;;;4.38;;
20637;SDS011;10478;49.004;8.470;2023-05-02T01:20:06;6.38;;;3.97;;
20637;SDS011;10478;49.004;8.470;2023-05-02T01:22:34;6.72;;;4.65;;
20637;SDS011;10478;49.004;8.470;2023-05-02T01:30:22;6.15;;;3.92;;
20637;SDS011;10478;49.004;8.470;2023-05-02T01:32:48;5.28;;;3.97;;
20637;SDS011;10478;49.004;8.470;2023-05-02T01:35:17;5.85;;;4.20;;
20637;SDS011;10478;49.004;8.470;2023-05-02T01:37:45;6.00;;;4.53;;
20637;SDS011;10478;49.004;8.470;2023-05-02T01:40:16;6.22;;;4.75;;
20637;SDS011;10478;49.004;8.470;2023-05-02T01:42:43;5.97;;;3.95;;
20637;SDS011;10478;49.004;8.470;2023-05-02T01:45:10;7.70;;;3.88;;
20637;SDS011;10478;49.004;8.470;2023-05-02T01:47:36;6.47;;;4.22;;
20637;SDS011;10478;49.004;8.470;2023-05-02T01:50:02;5.18;;;3.90;;
20637;SDS011;10478;49.004;8.470;2023-05-02T01:52:30;6.93;;;4.10;;
20637;SDS011;10478;49.004;8.470;2023-05-02T01:54:59;6.10;;;4.22;;
20637;SDS011;10478;49.004;8.470;2023-05-02T01:57:24;5.72;;;4.70;;
20637;SDS011;10478;49.004;8.470;2023-05-02T01:59:50;5.38;;;3.83;;
20637;SDS011;10478;49.004;8.470;2023-05-02T02:02:16;5.68;;;3.95;;
20637;SDS011;10478;49.004;8.470;2023-05-02T02:04:42;6.45;;;4.50;;
20637;SDS011;10478;49.004;8.470;2023-05-02T02:07:08;6.82;;;4.22;;
20637;SDS011;10478;49.004;8.470;2023-05-02T02:09:35;5.55;;;3.92;;
20637;SDS011;10478;49.004;8.470;2023-05-02T02:14:36;8.63;;;3.97;;
20637;SDS011;10478;49.004;8.470;2023-05-02T02:17:10;5.45;;;3.97;;
20637;SDS011;10478;49.004;8.470;2023-05-02T02:19:38;5.72;;;4.00;;
20637;SDS011;10478;49.004;8.470;2023-05-02T02:22:04;7.13;;;4.00;;
20637;SDS011;10478;49.004;8.470;2023-05-02T02:24:31;7.07;;;4.03;;
20637;SDS011;10478;49.004;8.470;2023-05-02T02:27:00;7.95;;;3.97;;
20637;SDS011;10478;49.004;8.470;2023-05-02T02:29:26;6.50;;;4.25;;
20637;SDS011;10478;49.004;8.470;2023-05-02T02:31:52;5.65;;;4.03;;
20637;SDS011;10478;49.004;8.470;2023-05-02T02:34:17;5.47;;;4.30;;
20637;SDS011;10478;49.004;8.470;2023-05-02T02:36:52;4.50;;;3.17;;
20637;SDS011;10478;49.004;8.470;2023-05-02T02:39:28;5.78;;;3.85;;
20637;SDS011;10478;49.004;8.470;2023-05-02T02:42:15;4.53;;;3.90;;
20637;SDS011;10478;49.004;8.470;2023-05-02T02:47:20;6.35;;;3.88;;
20637;SDS011;10478;49.004;8.470;2023-05-02T02:50:04;5.40;;;3.33;;
20637;SDS011;10478;49.004;8.470;2023-05-02T02:52:39;6.05;;;3.65;;
20637;SDS011;10478;49.004;8.470;2023-05-02T02:57:39;6.95;;;3.85;;
20637;SDS011;10478;49.004;8.470;2023-05-02T03:00:12;5.47;;;4.03;;
20637;SDS011;10478;49.004;8.470;2023-05-02T03:02:48;5.93;;;3.92;;
20637;SDS011;10478;49.004;8.470;2023-05-02T03:05:14;6.28;;;4.07;;
20637;SDS011;10478;49.004;8.470;2023-05-02T03:07:40;6.43;;;4.10;;
20637;SDS011;10478;49.004;8.470;2023-05-02T03:10:06;5.68;;;3.63;;
20637;SDS011;10478;49.004;8.470;2023-05-02T03:12:32;6.00;;;3.90;;
20637;SDS011;10478;49.004;8.470;2023-05-02T03:15:01;8.07;;;3.92;;
20637;SDS011;10478;49.004;8.470;2023-05-02T03:17:48;7.90;;;4.30;;
20637;SDS011;10478;49.004;8.470;2023-05-02T03:20:13;6.00;;;4.30;;
20637;SDS011;10478;49.004;8.470;2023-05-02T03:22:38;8.35;;;4.32;;
20637;SDS011;10478;49.004;8.470;2023-05-02T03:25:04;7.15;;;4.25;;
20637;SDS011;10478;49.004;8.470;2023-05-02T03:27:29;7.53;;;4.60;;
20637;SDS011;10478;49.004;8.470;2023-05-02T03:29:56;5.75;;;3.92;;
20637;SDS011;10478;49.004;8.470;2023-05-02T03:32:21;7.63;;;4.55;;
20637;SDS011;10478;49.004;8.470;2023-05-02T03:34:46;7.00;;;4.28;;
20637;SDS011;10478;49.004;8.470;2023-05-02T03:37:12;5.70;;;3.33;;
20637;SDS011;10478;49.004;8.470;2023-05-02T03:39:37;6.47;;;4.53;;
20637;SDS011;10478;49.004;8.470;2023-05-02T03:42:02;6.05;;;4.18;;
20637;SDS011;10478;49.004;8.470;2023-05-02T03:44:28;5.90;;;4.50;;
20637;SDS011;10478;49.004;8.470;2023-05-02T03:46:53;5.80;;;4.07;;
20637;SDS011;10478;49.004;8.470;2023-05-02T03:49:18;5.68;;;3.67;;
20637;SDS011;10478;49.004;8.470;2023-05-02T03:51:44;4.93;;;3.83;;
20637;SDS011;10478;49.004;8.470;2023-05-02T03:54:09;5.25;;;3.95;;
20637;SDS011;10478;49.004;8.470;2023-05-02T03:56:34;5.60;;;3.92;;
20637;SDS011;10478;49.004;8.470;2023-05-02T03:59:00;5.55;;;4.35;;
20637;SDS011;10478;49.004;8.470;2023-05-02T04:01:25;4.95;;;3.67;;
20637;SDS011;10478;49.004;8.470;2023-05-02T04:03:51;6.32;;;4.40;;
20637;SDS011;10478;49.004;8.470;2023-05-02T04:06:16;7.35;;;3.95;;
20637;SDS011;10478;49.004;8.470;2023-05-02T04:08:41;6.45;;;4.40;;
20637;SDS011;10478;49.004;8.470;2023-05-02T04:11:07;6.75;;;4.35;;
20637;SDS011;10478;49.004;8.470;2023-05-02T04:13:32;6.82;;;4.55;;
20637;SDS011;10478;49.004;8.470;2023-05-02T04:15:58;6.72;;;4.68;;
20637;SDS011;10478;49.004;8.470;2023-05-02T04:18:23;11.00;;;4.43;;
20637;SDS011;10478;49.004;8.470;2023-05-02T04:20:48;6.80;;;5.00;;
20637;SDS011;10478;49.004;8.470;2023-05-02T04:23:14;8.05;;;4.38;;
20637;SDS011;10478;49.004;8.470;2023-05-02T04:25:40;6.28;;;4.15;;
20637;SDS011;10478;49.004;8.470;2023-05-02T04:28:05;7.43;;;4.72;;
20637;SDS011;10478;49.004;8.470;2023-05-02T04:30:30;7.05;;;5.10;;
20637;SDS011;10478;49.004;8.470;2023-05-02T04:32:56;6.88;;;4.50;;
20637;SDS011;10478;49.004;8.470;2023-05-02T04:35:21;6.80;;;4.75;;
20637;SDS011;10478;49.004;8.470;2023-05-02T04:37:46;21.42;;;12.52;;
20637;SDS011;10478;49.004;8.470;2023-05-02T04:40:12;18.75;;;11.07;;
20637;SDS011;10478;49.004;8.470;2023-05-02T04:42:37;42.30;;;22.23;;
20637;SDS011;10478;49.004;8.470;2023-05-02T04:45:03;22.50;;;11.73;;
20637;SDS011;10478;49.004;8.470;2023-05-02T04:47:28;12.60;;;7.65;;
20637;SDS011;10478;49.004;8.470;2023-05-02T04:49:53;8.07;;;4.90;;
20637;SDS011;10478;49.004;8.470;2023-05-02T04:52:19;8.40;;;5.32;;
20637;SDS011;10478;49.004;8.470;2023-05-02T04:54:44;6.25;;;4.28;;
20637;SDS011;10478;49.004;8.470;2023-05-02T04:57:09;7.63;;;4.72;;
20637;SDS011;10478;49.004;8.470;2023-05-02T04:59:35;7.10;;;5.13;;
20637;SDS011;10478;49.004;8.470;2023-05-02T05:02:01;7.05;;;5.30;;
20637;SDS011;10478;49.004;8.470;2023-05-02T05:04:26;7.75;;;5.15;;
20637;SDS011;10478;49.004;8.470;2023-05-02T05:06:52;8.50;;;4.95;;
20637;SDS011;10478;49.004;8.470;2023-05-02T05:09:17;9.85;;;5.53;;
20637;SDS011;10478;49.004;8.470;2023-05-02T05:11:42;10.40;;;5.85;;
20637;SDS011;10478;49.004;8.470;2023-05-02T05:14:10;7.22;;;5.05;;
20637;SDS011;10478;49.004;8.470;2023-05-02T05:16:35;7.20;;;5.13;;
20637;SDS011;10478;49.004;8.470;2023-05-02T05:19:01;7.93;;;5.15;;
20637;SDS011;10478;49.004;8.470;2023-05-02T05:21:27;9.40;;;5.38;;
20637;SDS011;10478;49.004;8.470;2023-05-02T05:23:53;8.73;;;5.72;;
20637;SDS011;10478;49.004;8.470;2023-05-02T05:26:18;9.63;;;5.80;;
20637;SDS011;10478;49.004;8.470;2023-05-02T05:28:44;17.90;;;9.38;;
20637;SDS011;10478;49.004;8.470;2023-05-02T05:31:10;10.52;;;7.18;;
20637;SDS011;10478;49.004;8.470;2023-05-02T05:33:37;8.25;;;5.22;;
20637;SDS011;10478;49.004;8.470;2023-05-02T05:36:06;11.60;;;6.55;;
20637;SDS011;10478;49.004;8.470;2023-05-02T05:38:32;18.17;;;11.07;;
20637;SDS011;10478;49.004;8.470;2023-05-02T05:40:57;25.40;;;14.50;;
20637;SDS011;10478;49.004;8.470;2023-05-02T05:43:23;10.25;;;6.60;;
20637;SDS011;10478;49.004;8.470;2023-05-02T05:45:50;7.82;;;5.35;;
20637;SDS011;10478;49.004;8.470;2023-05-02T05:48:16;9.75;;;5.40;;
20637;SDS011;10478;49.004;8.470;2023-05-02T05:50:41;9.82;;;6.07;;
20637;SDS011;10478;49.004;8.470;2023-05-02T05:53:07;12.38;;;5.90;;
20637;SDS011;10478;49.004;8.470;2023-05-02T05:55:32;8.60;;;5.60;;
20637;SDS011;10478;49.004;8.470;2023-05-02T05:57:57;9.23;;;6.22;;
20637;SDS011;10478;49.004;8.470;2023-05-02T06:00:23;10.95;;;6.60;;
20637;SDS011;10478;49.004;8.470;2023-05-02T06:02:48;9.05;;;5.93;;
20637;SDS011;10478;49.004;8.470;2023-05-02T06:05:13;8.05;;;6.07;;
20637;SDS011;10478;49.004;8.470;2023-05-02T06:07:39;7.25;;;5.07;;
20637;SDS011;10478;49.004;8.470;2023-05-02T06:10:05;7.80;;;5.78;;
20637;SDS011;10478;49.004;8.470;2023-05-02T06:12:30;9.57;;;6.18;;
20637;SDS011;10478;49.004;8.470;2023-05-02T06:14:55;8.43;;;5.60;;
20637;SDS011;10478;49.004;8.470;2023-05-02T06:17:21;8.52;;;5.20;;
20637;SDS011;10478;49.004;8.470;2023-05-02T06:19:46;9.02;;;6.07;;
20637;SDS011;10478;49.004;8.470;2023-05-02T06:22:11;7.00;;;5.47;;
20637;SDS011;10478;49.004;8.470;2023-05-02T06:24:37;9.73;;;6.45;;
20637;SDS011;10478;49.004;8.470;2023-05-02T06:27:03;9.73;;;5.35;;
20637;SDS011;10478;49.004;8.470;2023-05-02T06:29:28;8.73;;;5.55;;
20637;SDS011;10478;49.004;8.470;2023-05-02T06:31:54;11.05;;;5.47;;
20637;SDS011;10478;49.004;8.470;2023-05-02T06:34:20;10.27;;;5.82;;
20637;SDS011;10478;49.004;8.470;2023-05-02T06:36:45;20.25;;;6.13;;
20637;SDS011;10478;49.004;8.470;2023-05-02T06:39:11;8.73;;;6.60;;
20637;SDS011;10478;49.004;8.470;2023-05-02T06:41:36;9.55;;;6.47;;
20637;SDS011;10478;49.004;8.470;2023-05-02T06:44:01;10.75;;;6.22;;
20637;SDS011;10478;49.004;8.470;2023-05-02T06:46:27;9.25;;;6.45;;
20637;SDS011;10478;49.004;8.470;2023-05-02T06:48:54;9.88;;;7.18;;
20637;SDS011;10478;49.004;8.470;2023-05-02T06:51:19;12.55;;;6.35;;
20637;SDS011;10478;49.004;8.470;2023-05-02T06:53:46;13.43;;;7.28;;
20637;SDS011;10478;49.004;8.470;2023-05-02T06:56:11;11.68;;;6.38;;
20637;SDS011;10478;49.004;8.470;2023-05-02T06:58:37;13.60;;;8.18;;
20637;SDS011;10478;49.004;8.470;2023-05-02T07:01:02;11.38;;;7.20;;
20637;SDS011;10478;49.004;8.470;2023-05-02T07:03:27;9.85;;;7.00;;
20637;SDS011;10478;49.004;8.470;2023-05-02T07:05:53;11.77;;;7.57;;
20637;SDS011;10478;49.004;8.470;2023-05-02T07:08:18;11.13;;;7.80;;
20637;SDS011;10478;49.004;8.470;2023-05-02T07:10:45;11.98;;;7.38;;
20637;SDS011;10478;49.004;8.470;2023-05-02T07:13:10;11.00;;;7.57;;
20637;SDS011;10478;49.004;8.470;2023-05-02T07:15:36;9.25;;;6.97;;
20637;SDS011;10478;49.004;8.470;2023-05-02T07:18:01;12.05;;;7.65;;
20637;SDS011;10478;49.004;8.470;2023-05-02T07:20:26;10.25;;;7.10;;
20637;SDS011;10478;49.004;8.470;2023-05-02T07:22:52;12.18;;;7.00;;
20637;SDS011;10478;49.004;8.470;2023-05-02T07:25:17;15.15;;;8.90;;
20637;SDS011;10478;49.004;8.470;2023-05-02T07:27:43;36.05;;;18.70;;
20637;SDS011;10478;49.004;8.470;2023-05-02T07:30:08;33.70;;;19.48;;
20637;SDS011;10478;49.004;8.470;2023-05-02T07:32:34;34.35;;;18.98;;
20637;SDS011;10478;49.004;8.470;2023-05-02T07:34:59;37.03;;;18.85;;
20637;SDS011;10478;49.004;8.470;2023-05-02T07:37:25;37.10;;;21.88;;
20637;SDS011;10478;49.004;8.470;2023-05-02T07:39:51;33.03;;;19.23;;
20637;SDS011;10478;49.004;8.470;2023-05-02T07:42:16;31.70;;;19.35;;
20637;SDS011;10478;49.004;8.470;2023-05-02T07:44:41;34.60;;;19.63;;
20637;SDS011;10478;49.004;8.470;2023-05-02T07:47:07;40.22;;;24.05;;
20637;SDS011;10478;49.004;8.470;2023-05-02T07:49:32;32.63;;;18.42;;
20637;SDS011;10478;49.004;8.470;2023-05-02T07:51:58;40.42;;;20.73;;
20637;SDS011;10478;49.004;8.470;2023-05-02T07:54:23;32.95;;;19.15;;
20637;SDS011;10478;49.004;8.470;2023-05-02T07:56:51;33.05;;;19.25;;
20637;SDS011;10478;49.004;8.470;2023-05-02T07:59:17;31.92;;;17.45;;
20637;SDS011;10478;49.004;8.470;2023-05-02T08:01:42;39.33;;;19.45;;
20637;SDS011;10478;49.004;8.470;2023-05-02T08:04:08;33.85;;;19.23;;
20637;SDS011;10478;49.004;8.470;2023-05-02T08:06:36;32.83;;;19.40;;
20637;SDS011;10478;49.004;8.470;2023-05-02T08:09:02;40.63;;;23.25;;
20637;SDS011;10478;49.004;8.470;2023-05-02T08:11:27;42.03;;;22.52;;
20637;SDS011;10478;49.004;8.470;2023-05-02T08:13:53;44.78;;;22.30;;
20637;SDS011;10478;49.004;8.470;2023-05-02T08:16:19;36.92;;;20.77;;
20637;SDS011;10478;49.004;8.470;2023-05-02T08:18:44;36.67;;;21.33;;
20637;SDS011;10478;49.004;8.470;2023-05-02T08:21:10;38.25;;;21.80;;
20637;SDS011;10478;49.004;8.470;2023-05-02T08:23:35;42.10;;;22.88;;
20637;SDS011;10478;49.004;8.470;2023-05-02T08:26:03;35.17;;;20.23;;
20637;SDS011;10478;49.004;8.470;2023-05-02T08:28:29;44.17;;;22.90;;
20637;SDS011;10478;49.004;8.470;2023-05-02T08:30:54;41.95;;;21.88;;
20637;SDS011;10478;49.004;8.470;2023-05-02T08:33:20;38.03;;;20.52;;
20637;SDS011;10478;49.004;8.470;2023-05-02T08:35:45;42.15;;;23.98;;
20637;SDS011;10478;49.004;8.470;2023-05-02T08:38:10;43.10;;;22.83;;
20637;SDS011;10478;49.004;8.470;2023-05-02T08:40:36;37.92;;;21.33;;
20637;SDS011;10478;49.004;8.470;2023-05-02T08:43:02;41.33;;;22.90;;
20637;SDS011;10478;49.004;8.470;2023-05-02T08:45:39;39.55;;;22.23;;
20637;SDS011;10478;49.004;8.470;2023-05-02T08:48:06;41.45;;;22.63;;
20637;SDS011;10478;49.004;8.470;2023-05-02T08:50:43;36.25;;;19.65;;
20637;SDS011;10478;49.004;8.470;2023-05-02T08:53:10;36.33;;;21.73;;
20637;SDS011;10478;49.004;8.470;2023-05-02T08:55:38;36.88;;;21.60;;
20637;SDS011;10478;49.004;8.470;2023-05-02T08:58:05;39.15;;;22.05;;
20637;SDS011;10478;49.004;8.470;2023-05-02T09:00:31;39.78;;;23.05;;
20637;SDS011;10478;49.004;8.470;2023-05-02T09:03:05;48.53;;;26.50;;
20637;SDS011;10478;49.004;8.470;2023-05-02T09:05:42;48.30;;;25.08;;
20637;SDS011;10478;49.004;8.470;2023-05-02T09:08:08;47.08;;;25.73;;
20637;SDS011;10478;49.004;8.470;2023-05-02T09:10:34;47.17;;;24.90;;
20637;SDS011;10478;49.004;8.470;2023-05-02T09:16:10;42.05;;;22.55;;
20637;SDS011;10478;49.004;8.470;2023-05-02T09:18:37;38.28;;;21.20;;
20637;SDS011;10478;49.004;8.470;2023-05-02T09:21:04;46.60;;;23.40;;
20637;SDS011;10478;49.004;8.470;2023-05-02T09:23:41;49.05;;;24.98;;
20637;SDS011;10478;49.004;8.470;2023-05-02T09:28:44;47.03;;;24.52;;
20637;SDS011;10478;49.004;8.470;2023-05-02T09:31:14;44.80;;;24.77;;
20637;SDS011;10478;49.004;8.470;2023-05-02T09:33:41;47.38;;;25.00;;
20637;SDS011;10478;49.004;8.470;2023-05-02T09:36:08;43.70;;;24.83;;
20637;SDS011;10478;49.004;8.470;2023-05-02T09:38:35;40.58;;;23.05;;
20637;SDS011;10478;49.004;8.470;2023-05-02T09:41:01;40.63;;;21.60;;
20637;SDS011;10478;49.004;8.470;2023-05-02T09:43:27;43.45;;;24.63;;
20637;SDS011;10478;49.004;8.470;2023-05-02T09:46:00;38.28;;;22.95;;
20637;SDS011;10478;49.004;8.470;2023-05-02T09:48:28;44.15;;;23.52;;
20637;SDS011;10478;49.004;8.470;2023-05-02T09:50:54;42.08;;;24.42;;
20637;SDS011;10478;49.004;8.470;2023-05-02T09:53:21;39.97;;;22.42;;
20637;SDS011;10478;49.004;8.470;2023-05-02T09:55:47;41.92;;;23.38;;
20637;SDS011;10478;49.004;8.470;2023-05-02T09:58:19;46.03;;;24.88;;
20637;SDS011;10478;49.004;8.470;2023-05-02T10:00:48;39.08;;;23.52;;
20637;SDS011;10478;49.004;8.470;2023-05-02T10:03:15;42.72;;;24.92;;
20637;SDS011;10478;49.004;8.470;2023-05-02T10:05:41;48.33;;;26.55;;
20637;SDS011;10478;49.004;8.470;2023-05-02T10:08:07;42.33;;;23.20;;
20637;SDS011;10478;49.004;8.470;2023-05-02T10:10:35;44.08;;;23.70;;
20637;SDS011;10478;49.004;8.470;2023-05-02T10:13:02;34.92;;;22.30;;
20637;SDS011;10478;49.004;8.470;2023-05-02T10:15:28;33.05;;;20.73;;
20637;SDS011;10478;49.004;8.470;2023-05-02T10:17:55;35.60;;;22.80;;
20637;SDS011;10478;49.004;8.470;2023-05-02T10:20:24;37.22;;;21.55;;
20637;SDS011;10478;49.004;8.470;2023-05-02T10:22:55;38.22;;;22.80;;
20637;SDS011;10478;49.004;8.470;2023-05-02T10:25:23;39.05;;;22.77;;
20637;SDS011;10478;49.004;8.470;2023-05-02T10:27:49;39.65;;;22.48;;
20637;SDS011;10478;49.004;8.470;2023-05-02T10:30:14;33.40;;;20.23;;
20637;SDS011;10478;49.004;8.470;2023-05-02T10:32:40;32.03;;;18.60;;
20637;SDS011;10478;49.004;8.470;2023-05-02T10:35:06;33.65;;;18.98;;
20637;SDS011;10478;49.004;8.470;2023-05-02T10:37:33;36.17;;;18.63;;
20637;SDS011;10478;49.004;8.470;2023-05-02T10:40:00;34.63;;;20.17;;
20637;SDS011;10478;49.004;8.470;2023-05-02T10:42:26;32.42;;;18.77;;
20637;SDS011;10478;49.004;8.470;2023-05-02T10:44:51;29.95;;;18.45;;
20637;SDS011;10478;49.004;8.470;2023-05-02T10:47:24;34.20;;;19.20;;
20637;SDS011;10478;49.004;8.470;2023-05-02T10:49:51;36.53;;;20.08;;
20637;SDS011;10478;49.004;8.470;2023-05-02T10:52:24;43.58;;;21.33;;
20637;SDS011;10478;49.004;8.470;2023-05-02T10:54:49;32.38;;;18.25;;
20637;SDS011;10478;49.004;8.470;2023-05-02T10:57:15;41.92;;;19.58;;
20637;SDS011;10478;49.004;8.470;2023-05-02T10:59:40;34.50;;;20.33;;
20637;SDS011;10478;49.004;8.470;2023-05-02T11:05:01;33.75;;;19.50;;
20637;SDS011;10478;49.004;8.470;2023-05-02T11:07:31;53.88;;;20.23;;
20637;SDS011;10478;49.004;8.470;2023-05-02T11:12:45;28.77;;;16.52;;
20637;SDS011;10478;49.004;8.470;2023-05-02T11:15:13;30.70;;;17.20;;
20637;SDS011;10478;49.004;8.470;2023-05-02T11:17:58;30.10;;;17.00;;
20637;SDS011;10478;49.004;8.470;2023-05-02T11:20:27;35.63;;;17.80;;
20637;SDS011;10478;49.004;8.470;2023-05-02T11:22:54;28.73;;;16.30;;
20637;SDS011;10478;49.004;8.470;2023-05-02T11:25:30;30.45;;;15.88;;
20637;SDS011;10478;49.004;8.470;2023-05-02T11:27:57;36.05;;;17.63;;
20637;SDS011;10478;49.004;8.470;2023-05-02T11:30:35;27.83;;;14.80;;
20637;SDS011;10478;49.004;8.470;2023-05-02T11:35:31;21.50;;;13.10;;
20637;SDS011;10478;49.004;8.470;2023-05-02T11:40:26;24.10;;;13.57;;
20637;SDS011;10478;49.004;8.470;2023-05-02T11:42:52;24.90;;;13.77;;
20637;SDS011;10478;49.004;8.470;2023-05-02T11:45:18;20.65;;;11.50;;
20637;SDS011;10478;49.004;8.470;2023-05-02T11:47:44;18.10;;;10.98;;
20637;SDS011;10478;49.004;8.470;2023-05-02T11:50:11;19.52;;;10.45;;
20637;SDS011;10478;49.004;8.470;2023-05-02T11:52:40;20.23;;;11.07;;
20637;SDS011;10478;49.004;8.470;2023-05-02T11:55:10;21.80;;;11.50;;
20637;SDS011;10478;49.004;8.470;2023-05-02T11:57:38;20.52;;;10.90;;
20637;SDS011;10478;49.004;8.470;2023-05-02T12:00:03;24.38;;;12.18;;
20637;SDS011;10478;49.004;8.470;2023-05-02T12:02:40;20.65;;;12.57;;
20637;SDS011;10478;49.004;8.470;2023-05-02T12:05:25;21.08;;;10.43;;
20637;SDS011;10478;49.004;8.470;2023-05-02T12:07:54;20.05;;;11.20;;
20637;SDS011;10478;49.004;8.470;2023-05-02T12:10:19;20.08;;;10.73;;
20637;SDS011;10478;49.004;8.470;2023-05-02T12:12:44;21.52;;;10.75;;
20637;SDS011;10478;49.004;8.470;2023-05-02T12:15:10;22.55;;;11.77;;
20637;SDS011;10478;49.004;8.470;2023-05-02T12:17:37;21.35;;;10.23;;
20637;SDS011;10478;49.004;8.470;2023-05-02T12:20:03;17.48;;;9.68;;
20637;SDS011;10478;49.004;8.470;2023-05-02T12:22:29;17.95;;;9.43;;
20637;SDS011;10478;49.004;8.470;2023-05-02T12:24:55;19.50;;;9.00;;
20637;SDS011;10478;49.004;8.470;2023-05-02T12:27:20;18.90;;;8.90;;
20637;SDS011;10478;49.004;8.470;2023-05-02T12:29:46;14.80;;;8.85;;
20637;SDS011;10478;49.004;8.470;2023-05-02T12:32:13;16.33;;;8.57;;
20637;SDS011;10478;49.004;8.470;2023-05-02T12:34:39;16.85;;;9.63;;
20637;SDS011;10478;49.004;8.470;2023-05-02T12:37:05;14.90;;;8.35;;
20637;SDS011;10478;49.004;8.470;2023-05-02T12:39:35;14.15;;;9.05;;
20637;SDS011;10478;49.004;8.470;2023-05-02T12:42:24;12.05;;;7.57;;
20637;SDS011;10478;49.004;8.470;2023-05-02T12:44:50;14.30;;;7.78;;
20637;SDS011;10478;49.004;8.470;2023-05-02T12:47:16;13.90;;;7.40;;
20637;SDS011;10478;49.004;8.470;2023-05-02T12:52:15;16.15;;;6.75;;
20637;SDS011;10478;49.004;8.470;2023-05-02T12:54:41;17.63;;;7.53;;
20637;SDS011;10478;49.004;8.470;2023-05-02T12:57:07;12.73;;;6.97;;
20637;SDS011;10478;49.004;8.470;2023-05-02T12:59:32;14.75;;;7.70;;
20637;SDS011;10478;49.004;8.470;2023-05-02T13:01:58;13.05;;;7.15;;
20637;SDS011;10478;49.004;8.470;2023-05-02T13:04:36;11.23;;;6.50;;
20637;SDS011;10478;49.004;8.470;2023-05-02T13:07:06;10.57;;;5.95;;
20637;SDS011;10478;49.004;8.470;2023-05-02T13:09:32;11.50;;;5.88;;
20637;SDS011;10478;49.004;8.470;2023-05-02T13:11:57;8.70;;;5.03;;
20637;SDS011;10478;49.004;8.470;2023-05-02T13:14:27;8.75;;;4.35;;
20637;SDS011;10478;49.004;8.470;2023-05-02T13:16:52;7.40;;;4.57;;
20637;SDS011;10478;49.004;8.470;2023-05-02T13:19:19;8.88;;;5.22;;
20637;SDS011;10478;49.004;8.470;2023-05-02T13:21:44;11.13;;;5.78;;
20637;SDS011;10478;49.004;8.470;2023-05-02T13:24:10;12.38;;;6.03;;
20637;SDS011;10478;49.004;8.470;2023-05-02T13:26:35;14.88;;;6.68;;
20637;SDS011;10478;49.004;8.470;2023-05-02T13:29:00;13.13;;;5.88;;
20637;SDS011;10478;49.004;8.470;2023-05-02T13:31:26;9.65;;;5.82;;
20637;SDS011;10478;49.004;8.470;2023-05-02T13:33:51;12.43;;;7.55;;
20637;SDS011;10478;49.004;8.470;2023-05-02T13:36:16;13.30;;;6.60;;
20637;SDS011;10478;49.004;8.470;2023-05-02T13:38:42;11.32;;;6.13;;
20637;SDS011;10478;49.004;8.470;2023-05-02T13:41:07;11.43;;;6.07;;
20637;SDS011;10478;49.004;8.470;2023-05-02T13:43:32;9.18;;;5.18;;
20637;SDS011;10478;49.004;8.470;2023-05-02T13:45:57;9.98;;;5.03;;
20637;SDS011;10478;49.004;8.470;2023-05-02T13:48:23;9.55;;;4.85;;
20637;SDS011;10478;49.004;8.470;2023-05-02T13:50:49;7.25;;;4.80;;
20637;SDS011;10478;49.004;8.470;2023-05-02T13:53:14;7.25;;;4.00;;
20637;SDS011;10478;49.004;8.470;2023-05-02T13:55:40;7.60;;;3.65;;
20637;SDS011;10478;49.004;8.470;2023-05-02T13:58:05;6.30;;;3.75;;
20637;SDS011;10478;49.004;8.470;2023-05-02T14:00:31;5.82;;;3.85;;
20637;SDS011;10478;49.004;8.470;2023-05-02T14:02:56;7.05;;;4.07;;
20637;SDS011;10478;49.004;8.470;2023-05-02T14:05:21;6.55;;;3.53;;
20637;SDS011;10478;49.004;8.470;2023-05-02T14:07:47;7.18;;;3.53;;
20637;SDS011;10478;49.004;8.470;2023-05-02T14:10:12;7.10;;;3.75;;
20637;SDS011;10478;49.004;8.470;2023-05-02T14:12:37;8.60;;;3.80;;
20637;SDS011;10478;49.004;8.470;2023-05-02T14:15:03;7.80;;;3.15;;
20637;SDS011;10478;49.004;8.470;2023-05-02T14:17:28;6.07;;;3.30;;
20637;SDS011;10478;49.004;8.470;2023-05-02T14:19:55;4.53;;;2.80;;
20637;SDS011;10478;49.004;8.470;2023-05-02T14:22:20;4.95;;;2.67;;
20637;SDS011;10478;49.004;8.470;2023-05-02T14:24:46;5.60;;;3.60;;
20637;SDS011;10478;49.004;8.470;2023-05-02T14:27:11;6.68;;;3.60;;
20637;SDS011;10478;49.004;8.470;2023-05-02T14:29:41;4.40;;;2.80;;
20637;SDS011;10478;49.004;8.470;2023-05-02T14:32:07;5.60;;;3.13;;
20637;SDS011;10478;49.004;8.470;2023-05-02T14:34:33;8.40;;;3.47;;
20637;SDS011;10478;49.004;8.470;2023-05-02T14:36:58;3.90;;;2.80;;
20637;SDS011;10478;49.004;8.470;2023-05-02T14:39:23;7.50;;;2.83;;
20637;SDS011;10478;49.004;8.470;2023-05-02T14:41:49;4.43;;;2.90;;
20637;SDS011;10478;49.004;8.470;2023-05-02T14:44:14;4.50;;;3.00;;
20637;SDS011;10478;49.004;8.470;2023-05-02T14:46:39;4.75;;;2.80;;
20637;SDS011;10478;49.004;8.470;2023-05-02T14:49:05;9.32;;;5.60;;
20637;SDS011;10478;49.004;8.470;2023-05-02T14:51:30;9.45;;;4.82;;
20637;SDS011;10478;49.004;8.470;2023-05-02T14:53:56;5.18;;;3.28;;
20637;SDS011;10478;49.004;8.470;2023-05-02T14:56:21;7.75;;;3.60;;
20637;SDS011;10478;49.004;8.470;2023-05-02T14:58:47;6.82;;;3.25;;
20637;SDS011;10478;49.004;8.470;2023-05-02T15:01:19;4.70;;;2.45;;
20637;SDS011;10478;49.004;8.470;2023-05-02T15:03:45;5.10;;;2.70;;
20637;SDS011;10478;49.004;8.470;2023-05-02T15:06:12;5.90;;;3.53;;
20637;SDS011;10478;49.004;8.470;2023-05-02T15:08:38;3.40;;;2.00;;
20637;SDS011;10478;49.004;8.470;2023-05-02T15:11:03;5.43;;;2.38;;